sensor_id;sensor_type;location;lat;lon;timestamp;temperature;humidity
14682;DHT22;7429;52.498;13.480;2023-02-28T00:01:06;2.10;99.90
14682;DHT22;7429;52.498;13.480;2023-02-28T00:04:09;2.10;99.90
14682;DHT22;7429;52.498;13.480;2023-02-28T00:07:12;2.10;99.90
14682;DHT22;7429;52.498;13.480;2023-02-28T00:10:18;2.10;99.90
14682;DHT22;7429;52.498;13.480;2023-02-28T00:13:24;2.10;99.90
14682;DHT22;7429;52.498;13.480;2023-02-28T00:16:27;2.00;99.90
14682;DHT22;7429;52.498;13.480;2023-02-28T00:19:30;2.00;99.90
14682;DHT22;7429;52.498;13.480;2023-02-28T00:22:34;1.90;99.90
14682;DHT22;7429;52.498;13.480;2023-02-28T00:25:37;2.00;99.90
14682;DHT22;7429;52.498;13.480;2023-02-28T00:28:42;2.00;99.90
14682;DHT22;7429;52.498;13.480;2023-02-28T00:31:45;2.00;99.90
14682;DHT22;7429;52.498;13.480;2023-02-28T00:34:49;2.00;99.90
14682;DHT22;7429;52.498;13.480;2023-02-28T00:37:52;2.00;99.90
14682;DHT22;7429;52.498;13.480;2023-02-28T00:40:55;2.00;99.90
14682;DHT22;7429;52.498;13.480;2023-02-28T00:44:00;2.00;99.90
14682;DHT22;7429;52.498;13.480;2023-02-28T00:47:06;2.00;99.90
14682;DHT22;7429;52.498;13.480;2023-02-28T00:50:10;2.00;99.90
14682;DHT22;7429;52.498;13.480;2023-02-28T00:53:14;1.90;99.90
14682;DHT22;7429;52.498;13.480;2023-02-28T00:56:17;1.90;99.90
14682;DHT22;7429;52.498;13.480;2023-02-28T00:59:23;1.90;99.90
14682;DHT22;7429;52.498;13.480;2023-02-28T01:02:26;1.90;99.90
14682;DHT22;7429;52.498;13.480;2023-02-28T01:05:29;1.90;99.90
14682;DHT22;7429;52.498;13.480;2023-02-28T01:08:32;1.90;99.90
14682;DHT22;7429;52.498;13.480;2023-02-28T01:11:38;2.00;99.90
14682;DHT22;7429;52.498;13.480;2023-02-28T01:14:45;1.90;99.90
14682;DHT22;7429;52.498;13.480;2023-02-28T01:17:48;1.90;99.90
14682;DHT22;7429;52.498;13.480;2023-02-28T01:20:51;1.90;99.90
14682;DHT22;7429;52.498;13.480;2023-02-28T01:23:57;1.90;99.90
14682;DHT22;7429;52.498;13.480;2023-02-28T01:27:00;1.90;99.90
14682;DHT22;7429;52.498;13.480;2023-02-28T01:30:06;1.80;99.90
14682;DHT22;7429;52.498;13.480;2023-02-28T01:33:10;1.80;99.90
14682;DHT22;7429;52.498;13.480;2023-02-28T01:36:15;1.80;99.90
14682;DHT22;7429;52.498;13.480;2023-02-28T01:39:20;1.70;99.90
14682;DHT22;7429;52.498;13.480;2023-02-28T01:42:24;1.60;99.90
14682;DHT22;7429;52.498;13.480;2023-02-28T01:45:30;1.50;99.90
14682;DHT22;7429;52.498;13.480;2023-02-28T01:48:36;1.40;99.90
14682;DHT22;7429;52.498;13.480;2023-02-28T01:51:46;1.30;99.90
14682;DHT22;7429;52.498;13.480;2023-02-28T01:54:55;1.20;99.90
14682;DHT22;7429;52.498;13.480;2023-02-28T01:58:02;1.10;99.90
14682;DHT22;7429;52.498;13.480;2023-02-28T02:01:08;1.00;99.90
14682;DHT22;7429;52.498;13.480;2023-02-28T02:04:23;0.80;99.90
14682;DHT22;7429;52.498;13.480;2023-02-28T02:07:30;0.80;99.90
14682;DHT22;7429;52.498;13.480;2023-02-28T02:10:38;0.70;99.90
14682;DHT22;7429;52.498;13.480;2023-02-28T02:13:58;0.70;99.90
14682;DHT22;7429;52.498;13.480;2023-02-28T02:17:21;0.70;99.90
14682;DHT22;7429;52.498;13.480;2023-02-28T02:21:07;0.50;99.90
14682;DHT22;7429;52.498;13.480;2023-02-28T02:28:48;0.40;99.90
14682;DHT22;7429;52.498;13.480;2023-02-28T02:32:24;0.40;99.90
14682;DHT22;7429;52.498;13.480;2023-02-28T02:35:37;0.30;99.90
14682;DHT22;7429;52.498;13.480;2023-02-28T02:38:47;0.30;99.90
14682;DHT22;7429;52.498;13.480;2023-02-28T02:41:53;0.30;99.90
14682;DHT22;7429;52.498;13.480;2023-02-28T02:45:00;0.30;99.90
14682;DHT22;7429;52.498;13.480;2023-02-28T02:48:08;0.30;99.90
14682;DHT22;7429;52.498;13.480;2023-02-28T02:51:17;0.30;99.90
14682;DHT22;7429;52.498;13.480;2023-02-28T02:54:25;0.20;99.90
14682;DHT22;7429;52.498;13.480;2023-02-28T02:57:33;0.20;99.90
14682;DHT22;7429;52.498;13.480;2023-02-28T03:00:43;0.20;99.90
14682;DHT22;7429;52.498;13.480;2023-02-28T03:03:49;0.10;99.90
14682;DHT22;7429;52.498;13.480;2023-02-28T03:06:54;0.10;99.90
14682;DHT22;7429;52.498;13.480;2023-02-28T03:09:57;0.10;99.90
14682;DHT22;7429;52.498;13.480;2023-02-28T03:13:12;0.00;99.90
14682;DHT22;7429;52.498;13.480;2023-02-28T03:16:35;0.00;99.90
14682;DHT22;7429;52.498;13.480;2023-02-28T03:19:49;0.10;99.90
14682;DHT22;7429;52.498;13.480;2023-02-28T03:23:04;0.10;99.90
14682;DHT22;7429;52.498;13.480;2023-02-28T03:26:20;0.00;99.90
14682;DHT22;7429;52.498;13.480;2023-02-28T03:29:31;0.00;99.90
14682;DHT22;7429;52.498;13.480;2023-02-28T03:32:40;0.00;99.90
14682;DHT22;7429;52.498;13.480;2023-02-28T03:35:50;0.00;99.90
14682;DHT22;7429;52.498;13.480;2023-02-28T03:38:58;-0.10;99.90
14682;DHT22;7429;52.498;13.480;2023-02-28T03:42:08;-0.20;99.90
14682;DHT22;7429;52.498;13.480;2023-02-28T03:45:15;-0.20;99.90
14682;DHT22;7429;52.498;13.480;2023-02-28T03:48:23;-0.20;99.90
14682;DHT22;7429;52.498;13.480;2023-02-28T03:51:31;-0.30;99.90
14682;DHT22;7429;52.498;13.480;2023-02-28T03:54:40;-0.30;99.90
14682;DHT22;7429;52.498;13.480;2023-02-28T03:57:53;-0.40;99.90
14682;DHT22;7429;52.498;13.480;2023-02-28T04:01:04;-0.40;99.90
14682;DHT22;7429;52.498;13.480;2023-02-28T04:04:12;-0.40;99.90
14682;DHT22;7429;52.498;13.480;2023-02-28T04:07:16;-0.40;99.90
14682;DHT22;7429;52.498;13.480;2023-02-28T04:10:21;-0.50;99.90
14682;DHT22;7429;52.498;13.480;2023-02-28T04:13:24;-0.60;99.90
14682;DHT22;7429;52.498;13.480;2023-02-28T04:16:28;-0.60;99.90
14682;DHT22;7429;52.498;13.480;2023-02-28T04:19:36;-0.60;99.90
14682;DHT22;7429;52.498;13.480;2023-02-28T04:22:39;-0.60;99.90
14682;DHT22;7429;52.498;13.480;2023-02-28T04:25:44;-0.70;99.90
14682;DHT22;7429;52.498;13.480;2023-02-28T04:28:47;-0.70;99.90
14682;DHT22;7429;52.498;13.480;2023-02-28T04:31:53;-0.70;99.90
14682;DHT22;7429;52.498;13.480;2023-02-28T04:35:02;-0.80;99.90
14682;DHT22;7429;52.498;13.480;2023-02-28T04:38:05;-0.90;99.90
14682;DHT22;7429;52.498;13.480;2023-02-28T04:41:10;-0.90;99.90
14682;DHT22;7429;52.498;13.480;2023-02-28T04:44:13;-0.90;99.90
14682;DHT22;7429;52.498;13.480;2023-02-28T04:47:17;-1.00;99.90
14682;DHT22;7429;52.498;13.480;2023-02-28T04:50:20;-1.10;99.90
14682;DHT22;7429;52.498;13.480;2023-02-28T04:53:23;-1.10;99.90
14682;DHT22;7429;52.498;13.480;2023-02-28T04:56:28;-1.10;99.90
14682;DHT22;7429;52.498;13.480;2023-02-28T04:59:31;-1.10;99.90
14682;DHT22;7429;52.498;13.480;2023-02-28T05:02:34;-1.10;99.90
14682;DHT22;7429;52.498;13.480;2023-02-28T05:05:38;-1.20;99.90
14682;DHT22;7429;52.498;13.480;2023-02-28T05:08:41;-1.20;99.90
14682;DHT22;7429;52.498;13.480;2023-02-28T05:11:45;-1.30;99.90
14682;DHT22;7429;52.498;13.480;2023-02-28T05:14:48;-1.30;99.90
14682;DHT22;7429;52.498;13.480;2023-02-28T05:17:51;-1.40;99.90
14682;DHT22;7429;52.498;13.480;2023-02-28T05:20:54;-1.40;99.90
14682;DHT22;7429;52.498;13.480;2023-02-28T05:23:59;-1.40;99.90
14682;DHT22;7429;52.498;13.480;2023-02-28T05:27:05;-1.40;99.90
14682;DHT22;7429;52.498;13.480;2023-02-28T05:30:09;-1.50;99.90
14682;DHT22;7429;52.498;13.480;2023-02-28T05:33:13;-1.40;99.90
14682;DHT22;7429;52.498;13.480;2023-02-28T05:36:17;-1.40;99.90
14682;DHT22;7429;52.498;13.480;2023-02-28T05:39:20;-1.50;99.90
14682;DHT22;7429;52.498;13.480;2023-02-28T05:42:25;-1.40;99.90
14682;DHT22;7429;52.498;13.480;2023-02-28T05:45:28;-1.50;99.90
14682;DHT22;7429;52.498;13.480;2023-02-28T05:48:32;-1.50;99.90
14682;DHT22;7429;52.498;13.480;2023-02-28T05:51:35;-1.50;99.90
14682;DHT22;7429;52.498;13.480;2023-02-28T05:54:41;-1.50;99.90
14682;DHT22;7429;52.498;13.480;2023-02-28T05:57:46;-1.50;99.90
14682;DHT22;7429;52.498;13.480;2023-02-28T06:00:49;-1.60;99.90
14682;DHT22;7429;52.498;13.480;2023-02-28T06:03:52;-1.60;99.90
14682;DHT22;7429;52.498;13.480;2023-02-28T06:06:56;-1.60;99.90
14682;DHT22;7429;52.498;13.480;2023-02-28T06:10:00;-1.60;99.90
14682;DHT22;7429;52.498;13.480;2023-02-28T06:13:04;-1.60;99.90
14682;DHT22;7429;52.498;13.480;2023-02-28T06:16:08;-1.60;99.90
14682;DHT22;7429;52.498;13.480;2023-02-28T06:19:12;-1.70;99.90
14682;DHT22;7429;52.498;13.480;2023-02-28T06:22:16;-1.70;99.90
14682;DHT22;7429;52.498;13.480;2023-02-28T06:25:19;-1.70;99.90
14682;DHT22;7429;52.498;13.480;2023-02-28T06:28:24;-1.60;99.90
14682;DHT22;7429;52.498;13.480;2023-02-28T06:31:28;-1.60;99.90
14682;DHT22;7429;52.498;13.480;2023-02-28T06:34:32;-1.60;99.90
14682;DHT22;7429;52.498;13.480;2023-02-28T06:37:36;-1.60;99.90
14682;DHT22;7429;52.498;13.480;2023-02-28T06:40:42;-1.60;99.90
14682;DHT22;7429;52.498;13.480;2023-02-28T06:43:46;-1.60;99.90
14682;DHT22;7429;52.498;13.480;2023-02-28T06:46:49;-1.50;99.90
14682;DHT22;7429;52.498;13.480;2023-02-28T06:49:53;-1.50;99.90
14682;DHT22;7429;52.498;13.480;2023-02-28T06:52:56;-1.40;99.90
14682;DHT22;7429;52.498;13.480;2023-02-28T06:55:59;-1.40;99.90
14682;DHT22;7429;52.498;13.480;2023-02-28T06:59:04;-1.40;99.90
14682;DHT22;7429;52.498;13.480;2023-02-28T07:02:08;-1.30;99.90
14682;DHT22;7429;52.498;13.480;2023-02-28T07:05:11;-1.20;99.90
14682;DHT22;7429;52.498;13.480;2023-02-28T07:08:14;-1.20;99.90
14682;DHT22;7429;52.498;13.480;2023-02-28T07:11:18;-1.20;99.90
14682;DHT22;7429;52.498;13.480;2023-02-28T07:14:22;-1.10;99.90
14682;DHT22;7429;52.498;13.480;2023-02-28T07:17:27;-1.00;99.90
14682;DHT22;7429;52.498;13.480;2023-02-28T07:20:30;-1.00;99.90
14682;DHT22;7429;52.498;13.480;2023-02-28T07:23:34;-0.90;99.90
14682;DHT22;7429;52.498;13.480;2023-02-28T07:26:37;-0.80;99.90
14682;DHT22;7429;52.498;13.480;2023-02-28T07:29:42;-0.70;99.90
14682;DHT22;7429;52.498;13.480;2023-02-28T07:32:45;-0.70;99.90
14682;DHT22;7429;52.498;13.480;2023-02-28T07:35:48;-0.60;99.90
14682;DHT22;7429;52.498;13.480;2023-02-28T07:38:51;-0.60;99.90
14682;DHT22;7429;52.498;13.480;2023-02-28T07:41:54;-0.40;99.90
14682;DHT22;7429;52.498;13.480;2023-02-28T07:45:02;-0.30;99.90
14682;DHT22;7429;52.498;13.480;2023-02-28T07:48:06;-0.20;99.90
14682;DHT22;7429;52.498;13.480;2023-02-28T07:51:12;-0.10;99.90
14682;DHT22;7429;52.498;13.480;2023-02-28T07:54:15;0.00;99.90
14682;DHT22;7429;52.498;13.480;2023-02-28T07:57:18;0.20;99.90
14682;DHT22;7429;52.498;13.480;2023-02-28T08:00:23;0.30;99.90
14682;DHT22;7429;52.498;13.480;2023-02-28T08:03:27;0.40;99.90
14682;DHT22;7429;52.498;13.480;2023-02-28T08:06:30;0.50;99.90
14682;DHT22;7429;52.498;13.480;2023-02-28T08:09:33;0.60;99.90
14682;DHT22;7429;52.498;13.480;2023-02-28T08:12:37;0.70;99.90
14682;DHT22;7429;52.498;13.480;2023-02-28T08:15:42;0.80;99.90
14682;DHT22;7429;52.498;13.480;2023-02-28T08:18:47;1.00;99.90
14682;DHT22;7429;52.498;13.480;2023-02-28T08:21:50;1.10;99.90
14682;DHT22;7429;52.498;13.480;2023-02-28T08:24:53;1.30;99.90
14682;DHT22;7429;52.498;13.480;2023-02-28T08:27:56;1.50;99.90
14682;DHT22;7429;52.498;13.480;2023-02-28T08:31:01;1.60;99.90
14682;DHT22;7429;52.498;13.480;2023-02-28T08:34:13;1.80;99.90
14682;DHT22;7429;52.498;13.480;2023-02-28T08:37:17;1.90;99.90
14682;DHT22;7429;52.498;13.480;2023-02-28T08:40:20;2.00;99.90
14682;DHT22;7429;52.498;13.480;2023-02-28T08:43:24;2.00;99.90
14682;DHT22;7429;52.498;13.480;2023-02-28T08:46:28;2.20;99.90
14682;DHT22;7429;52.498;13.480;2023-02-28T08:49:31;2.30;99.90
14682;DHT22;7429;52.498;13.480;2023-02-28T08:52:35;2.30;99.90
14682;DHT22;7429;52.498;13.480;2023-02-28T08:55:38;2.40;99.90
14682;DHT22;7429;52.498;13.480;2023-02-28T08:58:41;2.50;99.90
14682;DHT22;7429;52.498;13.480;2023-02-28T09:01:46;2.70;99.90
14682;DHT22;7429;52.498;13.480;2023-02-28T09:04:49;2.80;99.90
14682;DHT22;7429;52.498;13.480;2023-02-28T09:07:52;2.80;99.90
14682;DHT22;7429;52.498;13.480;2023-02-28T09:10:55;2.90;99.90
14682;DHT22;7429;52.498;13.480;2023-02-28T09:14:00;3.00;99.90
14682;DHT22;7429;52.498;13.480;2023-02-28T09:17:06;3.10;99.90
14682;DHT22;7429;52.498;13.480;2023-02-28T09:20:10;3.10;99.90
14682;DHT22;7429;52.498;13.480;2023-02-28T09:23:14;3.20;99.90
14682;DHT22;7429;52.498;13.480;2023-02-28T09:26:20;3.20;99.90
14682;DHT22;7429;52.498;13.480;2023-02-28T09:29:24;3.20;99.90
14682;DHT22;7429;52.498;13.480;2023-02-28T09:32:29;3.10;99.90
14682;DHT22;7429;52.498;13.480;2023-02-28T09:35:33;3.10;99.90
14682;DHT22;7429;52.498;13.480;2023-02-28T09:38:36;3.20;99.90
14682;DHT22;7429;52.498;13.480;2023-02-28T09:41:41;3.20;99.90
14682;DHT22;7429;52.498;13.480;2023-02-28T09:44:50;3.40;99.90
14682;DHT22;7429;52.498;13.480;2023-02-28T09:47:58;3.60;99.90
14682;DHT22;7429;52.498;13.480;2023-02-28T09:51:04;3.70;99.90
14682;DHT22;7429;52.498;13.480;2023-02-28T09:54:16;4.00;99.90
14682;DHT22;7429;52.498;13.480;2023-02-28T09:57:28;4.10;99.90
14682;DHT22;7429;52.498;13.480;2023-02-28T10:00:39;4.10;99.90
14682;DHT22;7429;52.498;13.480;2023-02-28T10:03:47;4.30;99.90
14682;DHT22;7429;52.498;13.480;2023-02-28T10:06:56;4.50;99.90
14682;DHT22;7429;52.498;13.480;2023-02-28T10:10:04;4.70;99.90
14682;DHT22;7429;52.498;13.480;2023-02-28T10:13:18;4.90;99.90
14682;DHT22;7429;52.498;13.480;2023-02-28T10:16:28;5.00;99.90
14682;DHT22;7429;52.498;13.480;2023-02-28T10:19:41;5.00;99.90
14682;DHT22;7429;52.498;13.480;2023-02-28T10:22:52;5.10;99.90
14682;DHT22;7429;52.498;13.480;2023-02-28T10:25:59;5.10;99.90
14682;DHT22;7429;52.498;13.480;2023-02-28T10:29:03;5.30;99.90
14682;DHT22;7429;52.498;13.480;2023-02-28T10:32:06;5.40;99.90
14682;DHT22;7429;52.498;13.480;2023-02-28T10:35:16;5.40;99.90
14682;DHT22;7429;52.498;13.480;2023-02-28T10:38:25;5.50;99.90
14682;DHT22;7429;52.498;13.480;2023-02-28T10:41:31;5.50;99.90
14682;DHT22;7429;52.498;13.480;2023-02-28T10:44:36;5.50;99.90
14682;DHT22;7429;52.498;13.480;2023-02-28T10:47:49;5.40;99.90
14682;DHT22;7429;52.498;13.480;2023-02-28T10:50:57;5.40;99.90
14682;DHT22;7429;52.498;13.480;2023-02-28T10:54:02;5.40;99.90
14682;DHT22;7429;52.498;13.480;2023-02-28T10:57:14;5.50;99.90
14682;DHT22;7429;52.498;13.480;2023-02-28T11:00:21;5.90;99.90
14682;DHT22;7429;52.498;13.480;2023-02-28T11:03:31;6.20;99.90
14682;DHT22;7429;52.498;13.480;2023-02-28T11:06:36;6.30;99.90
14682;DHT22;7429;52.498;13.480;2023-02-28T11:09:41;6.40;99.90
14682;DHT22;7429;52.498;13.480;2023-02-28T11:12:46;6.20;99.90
14682;DHT22;7429;52.498;13.480;2023-02-28T11:15:55;6.20;99.90
14682;DHT22;7429;52.498;13.480;2023-02-28T11:19:01;6.30;99.90
14682;DHT22;7429;52.498;13.480;2023-02-28T11:22:07;6.40;99.90
14682;DHT22;7429;52.498;13.480;2023-02-28T11:25:20;6.70;99.90
14682;DHT22;7429;52.498;13.480;2023-02-28T11:28:27;6.60;99.90
14682;DHT22;7429;52.498;13.480;2023-02-28T11:31:32;6.70;99.90
14682;DHT22;7429;52.498;13.480;2023-02-28T11:34:36;7.00;99.90
14682;DHT22;7429;52.498;13.480;2023-02-28T11:37:42;7.30;99.90
14682;DHT22;7429;52.498;13.480;2023-02-28T11:40:53;7.40;99.90
14682;DHT22;7429;52.498;13.480;2023-02-28T11:44:19;7.40;99.90
14682;DHT22;7429;52.498;13.480;2023-02-28T11:47:32;7.40;99.90
14682;DHT22;7429;52.498;13.480;2023-02-28T11:50:48;7.50;99.90
14682;DHT22;7429;52.498;13.480;2023-02-28T11:58:03;7.80;99.90
14682;DHT22;7429;52.498;13.480;2023-02-28T12:01:22;7.80;99.90
14682;DHT22;7429;52.498;13.480;2023-02-28T12:04:38;7.80;99.90
14682;DHT22;7429;52.498;13.480;2023-02-28T12:07:55;7.80;99.90
14682;DHT22;7429;52.498;13.480;2023-02-28T12:11:13;7.80;99.90
14682;DHT22;7429;52.498;13.480;2023-02-28T12:18:16;8.00;99.90
14682;DHT22;7429;52.498;13.480;2023-02-28T12:21:48;8.00;99.90
14682;DHT22;7429;52.498;13.480;2023-02-28T12:25:21;7.90;99.90
14682;DHT22;7429;52.498;13.480;2023-02-28T12:28:36;7.90;99.90
14682;DHT22;7429;52.498;13.480;2023-02-28T12:31:46;7.90;99.90
14682;DHT22;7429;52.498;13.480;2023-02-28T12:34:55;8.10;99.90
14682;DHT22;7429;52.498;13.480;2023-02-28T12:38:05;8.40;99.90
14682;DHT22;7429;52.498;13.480;2023-02-28T12:41:14;8.40;99.90
14682;DHT22;7429;52.498;13.480;2023-02-28T12:44:25;8.20;99.90
14682;DHT22;7429;52.498;13.480;2023-02-28T12:47:32;8.20;99.90
14682;DHT22;7429;52.498;13.480;2023-02-28T12:50:35;8.10;99.90
14682;DHT22;7429;52.498;13.480;2023-02-28T12:53:53;8.20;99.90
14682;DHT22;7429;52.498;13.480;2023-02-28T12:57:06;8.40;99.90
14682;DHT22;7429;52.498;13.480;2023-02-28T13:00:15;8.40;99.90
14682;DHT22;7429;52.498;13.480;2023-02-28T13:03:51;8.50;99.90
14682;DHT22;7429;52.498;13.480;2023-02-28T13:07:20;8.50;99.90
14682;DHT22;7429;52.498;13.480;2023-02-28T13:10:44;8.80;99.90
14682;DHT22;7429;52.498;13.480;2023-02-28T13:13:57;8.90;99.90
14682;DHT22;7429;52.498;13.480;2023-02-28T13:17:10;8.80;99.90
14682;DHT22;7429;52.498;13.480;2023-02-28T13:20:17;8.70;99.90
14682;DHT22;7429;52.498;13.480;2023-02-28T13:23:40;8.30;99.90
14682;DHT22;7429;52.498;13.480;2023-02-28T13:27:37;8.30;99.90
14682;DHT22;7429;52.498;13.480;2023-02-28T13:31:03;8.30;99.90
14682;DHT22;7429;52.498;13.480;2023-02-28T13:34:16;8.40;99.90
14682;DHT22;7429;52.498;13.480;2023-02-28T13:37:34;8.40;99.90
14682;DHT22;7429;52.498;13.480;2023-02-28T13:40:39;8.00;99.90
14682;DHT22;7429;52.498;13.480;2023-02-28T13:44:01;8.30;99.90
14682;DHT22;7429;52.498;13.480;2023-02-28T13:47:24;8.80;99.90
14682;DHT22;7429;52.498;13.480;2023-02-28T13:50:35;9.00;99.90
14682;DHT22;7429;52.498;13.480;2023-02-28T13:53:55;9.00;99.90
14682;DHT22;7429;52.498;13.480;2023-02-28T13:57:11;9.20;99.90
14682;DHT22;7429;52.498;13.480;2023-02-28T14:00:31;9.20;99.90
14682;DHT22;7429;52.498;13.480;2023-02-28T14:03:55;9.30;99.90
14682;DHT22;7429;52.498;13.480;2023-02-28T14:07:07;9.20;99.90
14682;DHT22;7429;52.498;13.480;2023-02-28T14:10:22;9.40;99.90
14682;DHT22;7429;52.498;13.480;2023-02-28T14:13:40;9.70;99.90
14682;DHT22;7429;52.498;13.480;2023-02-28T14:16:48;9.90;99.90
14682;DHT22;7429;52.498;13.480;2023-02-28T14:19:52;9.90;99.90
14682;DHT22;7429;52.498;13.480;2023-02-28T14:23:04;9.80;99.90
14682;DHT22;7429;52.498;13.480;2023-02-28T14:26:19;9.90;99.90
14682;DHT22;7429;52.498;13.480;2023-02-28T14:29:57;9.80;99.90
14682;DHT22;7429;52.498;13.480;2023-02-28T14:33:26;9.40;99.90
14682;DHT22;7429;52.498;13.480;2023-02-28T14:36:36;9.60;99.90
14682;DHT22;7429;52.498;13.480;2023-02-28T14:39:43;9.60;99.90
14682;DHT22;7429;52.498;13.480;2023-02-28T14:42:48;9.60;99.90
14682;DHT22;7429;52.498;13.480;2023-02-28T14:46:00;9.40;99.90
14682;DHT22;7429;52.498;13.480;2023-02-28T14:49:06;9.10;99.90
14682;DHT22;7429;52.498;13.480;2023-02-28T14:52:15;9.00;99.90
14682;DHT22;7429;52.498;13.480;2023-02-28T14:55:24;8.90;99.90
14682;DHT22;7429;52.498;13.480;2023-02-28T14:58:31;9.00;99.90
14682;DHT22;7429;52.498;13.480;2023-02-28T15:01:35;8.90;99.90
14682;DHT22;7429;52.498;13.480;2023-02-28T15:04:38;8.80;99.90
14682;DHT22;7429;52.498;13.480;2023-02-28T15:07:44;8.30;99.90
14682;DHT22;7429;52.498;13.480;2023-02-28T15:10:54;8.00;99.90
14682;DHT22;7429;52.498;13.480;2023-02-28T15:13:58;7.90;99.90
14682;DHT22;7429;52.498;13.480;2023-02-28T15:17:06;7.70;99.90
14682;DHT22;7429;52.498;13.480;2023-02-28T15:20:18;7.70;99.90
14682;DHT22;7429;52.498;13.480;2023-02-28T15:23:22;7.50;99.90
14682;DHT22;7429;52.498;13.480;2023-02-28T15:26:29;7.30;99.90
14682;DHT22;7429;52.498;13.480;2023-02-28T15:29:42;7.10;99.90
14682;DHT22;7429;52.498;13.480;2023-02-28T15:33:03;7.00;99.90
14682;DHT22;7429;52.498;13.480;2023-02-28T15:36:14;6.80;99.90
14682;DHT22;7429;52.498;13.480;2023-02-28T15:39:21;6.70;99.90
14682;DHT22;7429;52.498;13.480;2023-02-28T15:42:29;6.70;99.90
14682;DHT22;7429;52.498;13.480;2023-02-28T15:45:36;6.60;99.90
14682;DHT22;7429;52.498;13.480;2023-02-28T15:48:53;6.50;99.90
14682;DHT22;7429;52.498;13.480;2023-02-28T15:51:59;6.40;99.90
14682;DHT22;7429;52.498;13.480;2023-02-28T15:55:08;6.40;99.90
14682;DHT22;7429;52.498;13.480;2023-02-28T15:58:22;6.30;99.90
14682;DHT22;7429;52.498;13.480;2023-02-28T16:01:28;6.20;99.90
14682;DHT22;7429;52.498;13.480;2023-02-28T16:04:33;6.30;99.90
14682;DHT22;7429;52.498;13.480;2023-02-28T16:07:38;6.30;99.90
14682;DHT22;7429;52.498;13.480;2023-02-28T16:10:41;6.20;99.90
14682;DHT22;7429;52.498;13.480;2023-02-28T16:13:46;6.20;99.90
14682;DHT22;7429;52.498;13.480;2023-02-28T16:16:50;6.00;99.90
14682;DHT22;7429;52.498;13.480;2023-02-28T16:19:55;6.00;99.90
14682;DHT22;7429;52.498;13.480;2023-02-28T16:22:59;5.90;99.90
14682;DHT22;7429;52.498;13.480;2023-02-28T16:26:05;5.80;99.90
14682;DHT22;7429;52.498;13.480;2023-02-28T16:29:13;5.60;99.90
14682;DHT22;7429;52.498;13.480;2023-02-28T16:32:22;5.50;99.90
14682;DHT22;7429;52.498;13.480;2023-02-28T16:35:25;5.60;99.90
14682;DHT22;7429;52.498;13.480;2023-02-28T16:38:28;5.40;99.90
14682;DHT22;7429;52.498;13.480;2023-02-28T16:41:31;5.40;99.90
14682;DHT22;7429;52.498;13.480;2023-02-28T16:44:37;5.40;99.90
14682;DHT22;7429;52.498;13.480;2023-02-28T16:47:40;5.40;99.90
14682;DHT22;7429;52.498;13.480;2023-02-28T16:50:43;5.30;99.90
14682;DHT22;7429;52.498;13.480;2023-02-28T16:53:47;5.20;99.90
14682;DHT22;7429;52.498;13.480;2023-02-28T16:56:50;5.10;99.90
14682;DHT22;7429;52.498;13.480;2023-02-28T16:59:54;5.00;99.90
14682;DHT22;7429;52.498;13.480;2023-02-28T17:02:58;4.90;99.90
14682;DHT22;7429;52.498;13.480;2023-02-28T17:06:02;4.80;99.90
14682;DHT22;7429;52.498;13.480;2023-02-28T17:09:08;4.70;99.90
14682;DHT22;7429;52.498;13.480;2023-02-28T17:12:15;4.50;99.90
14682;DHT22;7429;52.498;13.480;2023-02-28T17:15:20;4.40;99.90
14682;DHT22;7429;52.498;13.480;2023-02-28T17:18:24;4.20;99.90
14682;DHT22;7429;52.498;13.480;2023-02-28T17:21:29;4.10;99.90
14682;DHT22;7429;52.498;13.480;2023-02-28T17:24:32;4.00;99.90
14682;DHT22;7429;52.498;13.480;2023-02-28T17:27:35;3.90;99.90
14682;DHT22;7429;52.498;13.480;2023-02-28T17:30:40;3.80;99.90
14682;DHT22;7429;52.498;13.480;2023-02-28T17:33:48;3.70;99.90
14682;DHT22;7429;52.498;13.480;2023-02-28T17:36:52;3.60;99.90
14682;DHT22;7429;52.498;13.480;2023-02-28T17:39:55;3.60;99.90
14682;DHT22;7429;52.498;13.480;2023-02-28T17:42:58;3.50;99.90
14682;DHT22;7429;52.498;13.480;2023-02-28T17:46:02;3.50;99.90
14682;DHT22;7429;52.498;13.480;2023-02-28T17:49:08;3.40;99.90
14682;DHT22;7429;52.498;13.480;2023-02-28T17:52:12;3.20;99.90
14682;DHT22;7429;52.498;13.480;2023-02-28T17:55:15;3.30;99.90
14682;DHT22;7429;52.498;13.480;2023-02-28T17:58:20;3.20;99.90
14682;DHT22;7429;52.498;13.480;2023-02-28T18:01:25;3.10;99.90
14682;DHT22;7429;52.498;13.480;2023-02-28T18:04:29;3.00;99.90
14682;DHT22;7429;52.498;13.480;2023-02-28T18:07:33;2.90;99.90
14682;DHT22;7429;52.498;13.480;2023-02-28T18:10:36;2.90;99.90
14682;DHT22;7429;52.498;13.480;2023-02-28T18:13:39;2.80;99.90
14682;DHT22;7429;52.498;13.480;2023-02-28T18:16:44;2.80;99.90
14682;DHT22;7429;52.498;13.480;2023-02-28T18:19:48;2.60;99.90
14682;DHT22;7429;52.498;13.480;2023-02-28T18:22:51;2.60;99.90
14682;DHT22;7429;52.498;13.480;2023-02-28T18:25:54;2.50;99.90
14682;DHT22;7429;52.498;13.480;2023-02-28T18:28:57;2.40;99.90
14682;DHT22;7429;52.498;13.480;2023-02-28T18:32:01;2.40;99.90
14682;DHT22;7429;52.498;13.480;2023-02-28T18:35:07;2.30;99.90
14682;DHT22;7429;52.498;13.480;2023-02-28T18:38:13;2.20;99.90
14682;DHT22;7429;52.498;13.480;2023-02-28T18:41:18;2.10;99.90
14682;DHT22;7429;52.498;13.480;2023-02-28T18:44:22;2.00;99.90
14682;DHT22;7429;52.498;13.480;2023-02-28T18:47:29;1.90;99.90
14682;DHT22;7429;52.498;13.480;2023-02-28T18:50:33;1.90;99.90
14682;DHT22;7429;52.498;13.480;2023-02-28T18:53:43;1.90;99.90
14682;DHT22;7429;52.498;13.480;2023-02-28T18:56:46;1.90;99.90
14682;DHT22;7429;52.498;13.480;2023-02-28T18:59:51;1.80;99.90
14682;DHT22;7429;52.498;13.480;2023-02-28T19:02:56;1.80;99.90
14682;DHT22;7429;52.498;13.480;2023-02-28T19:05:59;1.70;99.90
14682;DHT22;7429;52.498;13.480;2023-02-28T19:09:03;1.70;99.90
14682;DHT22;7429;52.498;13.480;2023-02-28T19:12:06;1.60;99.90
14682;DHT22;7429;52.498;13.480;2023-02-28T19:15:10;1.60;99.90
14682;DHT22;7429;52.498;13.480;2023-02-28T19:18:15;1.50;99.90
14682;DHT22;7429;52.498;13.480;2023-02-28T19:21:21;1.50;99.90
14682;DHT22;7429;52.498;13.480;2023-02-28T19:24:25;1.50;99.90
14682;DHT22;7429;52.498;13.480;2023-02-28T19:27:28;1.40;99.90
14682;DHT22;7429;52.498;13.480;2023-02-28T19:30:31;1.40;99.90
14682;DHT22;7429;52.498;13.480;2023-02-28T19:33:36;1.20;99.90
14682;DHT22;7429;52.498;13.480;2023-02-28T19:36:39;1.20;99.90
14682;DHT22;7429;52.498;13.480;2023-02-28T19:39:42;1.20;99.90
14682;DHT22;7429;52.498;13.480;2023-02-28T19:42:46;1.20;99.90
14682;DHT22;7429;52.498;13.480;2023-02-28T19:45:49;1.20;99.90
14682;DHT22;7429;52.498;13.480;2023-02-28T19:48:54;1.10;99.90
14682;DHT22;7429;52.498;13.480;2023-02-28T19:51:57;1.10;99.90
14682;DHT22;7429;52.498;13.480;2023-02-28T19:55:00;1.20;99.90
14682;DHT22;7429;52.498;13.480;2023-02-28T19:58:04;1.10;99.90
14682;DHT22;7429;52.498;13.480;2023-02-28T20:01:08;1.10;99.90
14682;DHT22;7429;52.498;13.480;2023-02-28T20:04:14;1.00;99.90
14682;DHT22;7429;52.498;13.480;2023-02-28T20:07:17;0.90;99.90
14682;DHT22;7429;52.498;13.480;2023-02-28T20:10:22;0.80;99.90